createdAt,value
2023-02-24T00:00:30.466Z,33.17
2023-02-24T00:02:56.955Z,53.80
2023-02-24T00:05:23.704Z,62.15
2023-02-24T00:07:50.249Z,44.10
2023-02-24T00:10:21.034Z,51.58
2023-02-24T00:12:47.797Z,59.65
2023-02-24T00:15:15.110Z,48.15
2023-02-24T00:17:44.989Z,33.58
2023-02-24T00:20:12.149Z,46.15
2023-02-24T00:22:41.783Z,40.47
2023-02-24T00:25:08.854Z,77.22
2023-02-24T00:27:35.396Z,88.70
2023-02-24T00:30:01.867Z,43.75
2023-02-24T00:32:28.995Z,34.25
2023-02-24T00:34:55.823Z,52.67
2023-02-24T00:37:23.928Z,63.83
2023-02-24T00:39:58.500Z,46.67
2023-02-24T00:42:24.998Z,55.28
2023-02-24T00:44:53.966Z,51.00
2023-02-24T00:47:22.411Z,73.28
2023-02-24T00:49:50.198Z,41.58
2023-02-24T00:52:20.389Z,56.58
2023-02-24T00:54:48.131Z,95.63
2023-02-24T00:57:14.799Z,66.22
2023-02-24T00:59:42.407Z,50.45
2023-02-24T01:02:08.996Z,42.40
2023-02-24T01:04:37.494Z,43.15
2023-02-24T01:07:10.245Z,36.13
2023-02-24T01:09:37.175Z,36.97
2023-02-24T01:12:22.308Z,42.20
2023-02-24T01:14:50.280Z,38.72
2023-02-24T01:17:18.237Z,54.50
2023-02-24T01:19:44.977Z,50.03
2023-02-24T01:22:14.627Z,40.15
2023-02-24T01:24:43.823Z,35.13
2023-02-24T01:27:11.935Z,39.00
2023-02-24T01:29:39.772Z,35.38
2023-02-24T01:32:14.070Z,36.63
2023-02-24T01:34:42.400Z,57.28
2023-02-24T01:37:09.537Z,49.20
2023-02-24T01:39:36.195Z,62.38
2023-02-24T01:42:04.162Z,38.88
2023-02-24T01:44:32.516Z,44.20
2023-02-24T01:47:01.354Z,48.20
2023-02-24T01:49:34.215Z,33.55
2023-02-24T01:54:32.203Z,43.85
2023-02-24T01:56:58.713Z,43.95
2023-02-24T01:59:28.850Z,39.20
2023-02-24T02:02:06.560Z,88.10
2023-02-24T02:04:57.078Z,82.05
2023-02-24T02:07:23.677Z,75.22
2023-02-24T02:09:50.322Z,74.05
2023-02-24T02:12:17.362Z,60.60
2023-02-24T02:14:52.137Z,45.65
2023-02-24T02:17:44.620Z,30.70
2023-02-24T02:20:38.047Z,32.00
2023-02-24T02:23:30.013Z,38.35
2023-02-24T02:26:20.049Z,29.92
2023-02-24T02:29:19.392Z,29.50
2023-02-24T02:32:17.203Z,35.45
2023-02-24T02:35:06.420Z,39.92
2023-02-24T02:37:35.004Z,34.90
2023-02-24T02:40:20.119Z,27.33
2023-02-24T02:42:59.649Z,32.05
2023-02-24T02:45:52.660Z,31.60
2023-02-24T02:48:29.586Z,35.63
2023-02-24T02:51:04.288Z,32.88
2023-02-24T02:53:34.747Z,36.58
2023-02-24T02:56:12.964Z,32.78
2023-02-24T02:58:42.096Z,31.23
2023-02-24T03:01:08.576Z,30.40
2023-02-24T03:03:37.800Z,31.45
2023-02-24T03:06:07.052Z,30.52
2023-02-24T03:08:37.106Z,26.80
2023-02-24T03:11:05.601Z,28.40
2023-02-24T03:13:36.713Z,28.40
2023-02-24T03:16:03.372Z,26.52
2023-02-24T03:18:33.941Z,27.48
2023-02-24T03:21:12.811Z,26.27
2023-02-24T03:23:50.285Z,35.53
2023-02-24T03:26:32.257Z,31.73
2023-02-24T03:29:24.494Z,31.25
2023-02-24T03:32:04.718Z,25.75
2023-02-24T03:34:40.202Z,26.98
2023-02-24T03:37:06.693Z,25.98
2023-02-24T03:39:33.185Z,27.27
2023-02-24T03:42:12.125Z,28.42
2023-02-24T03:44:38.601Z,27.17
2023-02-24T03:47:05.074Z,27.75
2023-02-24T03:49:31.595Z,39.67
2023-02-24T03:52:32.396Z,37.63
2023-02-24T03:55:10.010Z,27.90
2023-02-24T03:58:05.635Z,27.23
2023-02-24T04:00:47.315Z,37.45
2023-02-24T04:03:30.862Z,30.40
2023-02-24T04:06:08.137Z,31.73
2023-02-24T04:09:10.827Z,30.63
2023-02-24T04:12:02.949Z,28.15
2023-02-24T04:14:43.638Z,35.65
2023-02-24T04:17:22.068Z,26.88
2023-02-24T04:19:51.563Z,27.88
2023-02-24T04:22:19.808Z,29.35
2023-02-24T04:24:47.140Z,26.88
2023-02-24T04:27:13.594Z,26.65
2023-02-24T04:29:47.107Z,26.92
2023-02-24T04:32:14.136Z,27.88
2023-02-24T04:34:40.979Z,25.15
2023-02-24T04:37:07.465Z,24.40
2023-02-24T04:39:34.007Z,26.02
2023-02-24T04:42:01.681Z,27.15
2023-02-24T04:44:29.094Z,26.48
2023-02-24T04:46:56.557Z,29.65
2023-02-24T04:49:23.028Z,24.08
2023-02-24T04:51:51.469Z,26.00
2023-02-24T04:54:19.108Z,40.03
2023-02-24T04:56:50.734Z,36.65
2023-02-24T04:59:18.446Z,47.45
2023-02-24T05:01:45.076Z,40.13
2023-02-24T05:04:12.939Z,29.08
2023-02-24T05:06:44.568Z,26.85
2023-02-24T05:09:14.959Z,28.65
2023-02-24T05:11:42.529Z,27.73
2023-02-24T05:14:16.230Z,42.30
2023-02-24T05:16:43.684Z,27.50
2023-02-24T05:19:29.550Z,25.98
2023-02-24T05:21:57.846Z,29.25
2023-02-24T05:24:25.873Z,27.50
2023-02-24T05:26:58.116Z,28.10
2023-02-24T05:29:31.342Z,25.52
2023-02-24T05:32:01.047Z,27.50
2023-02-24T05:34:30.451Z,28.73
2023-02-24T05:36:58.154Z,25.88
2023-02-24T05:39:26.591Z,28.60
2023-02-24T05:41:54.665Z,32.08
2023-02-24T05:44:23.689Z,32.42
2023-02-24T05:46:56.738Z,36.65
2023-02-24T05:49:29.294Z,26.83
2023-02-24T05:51:58.047Z,31.23
2023-02-24T05:54:29.676Z,30.23
2023-02-24T05:57:00.107Z,27.98
2023-02-24T05:59:32.484Z,30.08
2023-02-24T06:02:07.531Z,29.80
2023-02-24T06:04:40.964Z,33.40
2023-02-24T06:07:19.762Z,32.20
2023-02-24T06:09:53.628Z,28.45
2023-02-24T06:12:21.379Z,28.90
2023-02-24T06:14:47.973Z,28.88
2023-02-24T06:17:18.414Z,29.40
2023-02-24T06:19:49.437Z,35.85
2023-02-24T06:22:19.096Z,27.95
2023-02-24T06:24:45.916Z,38.03
2023-02-24T06:27:18.092Z,32.55
2023-02-24T06:29:45.610Z,32.88
2023-02-24T06:32:12.802Z,36.88
2023-02-24T06:34:39.706Z,34.25
2023-02-24T06:37:07.216Z,33.97
2023-02-24T06:39:36.598Z,30.42
2023-02-24T06:42:05.099Z,29.30
2023-02-24T06:44:32.537Z,29.75
2023-02-24T06:46:59.152Z,31.00
2023-02-24T06:49:26.785Z,28.27
2023-02-24T06:51:54.636Z,28.58
2023-02-24T06:54:25.706Z,29.42
2023-02-24T06:56:52.438Z,28.85
2023-02-24T06:59:21.878Z,31.63
2023-02-24T07:01:48.985Z,28.05
2023-02-24T07:04:16.224Z,30.17
2023-02-24T07:06:44.572Z,30.95
2023-02-24T07:09:13.293Z,29.17
2023-02-24T07:11:46.904Z,27.75
2023-02-24T07:14:13.857Z,27.70
2023-02-24T07:16:45.604Z,28.30
2023-02-24T07:19:15.831Z,26.93
2023-02-24T07:21:46.646Z,27.75
2023-02-24T07:24:14.370Z,26.73
2023-02-24T07:26:42.118Z,28.92
2023-02-24T07:29:11.510Z,27.63
2023-02-24T07:31:39.061Z,31.25
2023-02-24T07:34:06.364Z,28.88
2023-02-24T07:36:38.920Z,34.70
2023-02-24T07:39:08.070Z,26.70
2023-02-24T07:41:34.714Z,29.42
2023-02-24T07:44:03.441Z,29.73
2023-02-24T07:46:30.154Z,28.17
2023-02-24T07:48:56.774Z,27.08
2023-02-24T07:51:24.972Z,25.38
2023-02-24T07:53:56.641Z,26.27
2023-02-24T07:56:27.015Z,23.98
2023-02-24T07:58:59.174Z,28.58
2023-02-24T08:01:30.565Z,27.02
2023-02-24T08:04:01.437Z,26.27
2023-02-24T08:06:38.319Z,23.58
2023-02-24T08:09:18.492Z,23.20
2023-02-24T08:11:52.491Z,25.42
2023-02-24T08:14:27.063Z,23.63
2023-02-24T08:16:59.386Z,24.35
2023-02-24T08:19:32.740Z,23.75
2023-02-24T08:22:20.370Z,24.15
2023-02-24T08:24:50.127Z,25.60
2023-02-24T08:27:24.352Z,24.95
2023-02-24T08:30:04.004Z,24.90
2023-02-24T08:32:38.351Z,23.65
2023-02-24T08:35:14.456Z,24.77
2023-02-24T08:37:47.379Z,25.08
2023-02-24T08:40:33.198Z,20.70
2023-02-24T08:43:16.067Z,20.98
2023-02-24T08:48:26.777Z,17.88
2023-02-24T08:50:54.613Z,19.75
2023-02-24T08:53:21.644Z,21.25
2023-02-24T08:55:51.780Z,19.83
2023-02-24T08:58:26.973Z,17.08
2023-02-24T09:00:59.106Z,18.65
2023-02-24T09:03:29.756Z,19.67
2023-02-24T09:06:09.136Z,18.95
2023-02-24T09:08:38.437Z,16.67
2023-02-24T09:11:10.455Z,17.30
2023-02-24T09:13:37.386Z,17.50
2023-02-24T09:16:04.593Z,18.20
2023-02-24T09:18:38.272Z,18.42
2023-02-24T09:21:28.290Z,20.33
2023-02-24T09:23:55.988Z,18.33
2023-02-24T09:26:22.831Z,17.92
2023-02-24T09:28:49.379Z,17.60
2023-02-24T09:31:18.588Z,16.42
2023-02-24T09:33:50.937Z,16.40
2023-02-24T09:36:27.677Z,16.27
2023-02-24T09:39:01.935Z,16.58
2023-02-24T09:42:17.897Z,17.20
2023-02-24T09:44:48.164Z,14.32
2023-02-24T09:47:31.027Z,13.98
2023-02-24T09:52:39.985Z,15.77
2023-02-24T09:55:46.233Z,14.75
2023-02-24T09:58:34.857Z,15.50
2023-02-24T10:01:21.109Z,15.45
2023-02-24T10:03:53.378Z,15.85
2023-02-24T10:06:26.817Z,16.17
2023-02-24T10:09:25.132Z,14.80
2023-02-24T10:11:53.937Z,14.57
2023-02-24T10:14:44.584Z,14.40
2023-02-24T10:17:24.693Z,14.23
2023-02-24T10:20:00.208Z,12.75
2023-02-24T10:22:34.576Z,12.95
2023-02-24T10:25:11.179Z,14.13
2023-02-24T10:27:53.027Z,13.30
2023-02-24T10:30:41.049Z,11.73
2023-02-24T10:33:20.539Z,11.90
2023-02-24T10:35:47.156Z,12.43
2023-02-24T10:38:13.633Z,11.88
2023-02-24T10:40:56.638Z,10.73
2023-02-24T10:46:07.544Z,12.13
2023-02-24T10:48:41.673Z,12.27
2023-02-24T10:51:20.625Z,11.75
2023-02-24T10:54:09.855Z,11.23
2023-02-24T10:56:44.598Z,13.50
2023-02-24T10:59:25.050Z,12.95
2023-02-24T11:01:59.416Z,12.30
2023-02-24T11:04:55.962Z,13.27
2023-02-24T11:07:25.341Z,12.48
2023-02-24T11:10:48.560Z,12.48
2023-02-24T11:13:34.473Z,12.70
2023-02-24T11:16:19.637Z,12.48
2023-02-24T11:18:46.992Z,12.73
2023-02-24T11:21:14.349Z,14.52
2023-02-24T11:23:45.421Z,14.77
2023-02-24T11:26:16.611Z,14.07
2023-02-24T11:28:49.351Z,14.70
2023-02-24T11:34:00.609Z,14.65
2023-02-24T11:36:45.672Z,14.32
2023-02-24T11:39:43.037Z,15.25
2023-02-24T11:42:13.360Z,15.30
2023-02-24T11:44:50.524Z,14.05
2023-02-24T11:47:18.472Z,15.13
2023-02-24T11:50:01.473Z,15.10
2023-02-24T11:52:32.621Z,14.77
2023-02-24T11:55:00.592Z,13.80
2023-02-24T11:57:34.302Z,13.10
2023-02-24T12:00:21.519Z,13.85
2023-02-24T12:02:53.020Z,12.90
2023-02-24T12:05:28.333Z,12.93
2023-02-24T12:07:57.682Z,14.10
2023-02-24T12:10:32.375Z,13.23
2023-02-24T12:13:11.008Z,12.50
2023-02-24T12:15:52.694Z,14.35
2023-02-24T12:18:46.742Z,12.57
2023-02-24T12:21:19.226Z,12.55
2023-02-24T12:23:46.525Z,12.30
2023-02-24T12:26:42.608Z,13.23
2023-02-24T12:29:09.773Z,13.18
2023-02-24T12:32:05.480Z,14.18
2023-02-24T12:34:50.644Z,12.88
2023-02-24T12:37:33.054Z,14.45
2023-02-24T12:40:23.368Z,13.63
2023-02-24T12:43:02.107Z,13.90
2023-02-24T12:45:39.289Z,13.57
2023-02-24T12:48:24.060Z,12.65
2023-02-24T12:51:35.485Z,13.50
2023-02-24T12:54:16.856Z,13.07
2023-02-24T12:57:18.064Z,13.07
2023-02-24T12:59:44.848Z,13.63
2023-02-24T13:02:17.172Z,12.07
2023-02-24T13:04:55.392Z,12.57
2023-02-24T13:07:39.833Z,13.38
2023-02-24T13:10:21.359Z,12.60
2023-02-24T13:13:11.072Z,13.02
2023-02-24T13:15:37.651Z,13.27
2023-02-24T13:18:04.266Z,12.93
2023-02-24T13:20:36.381Z,13.23
2023-02-24T13:23:05.193Z,14.02
2023-02-24T13:25:37.160Z,14.10
2023-02-24T13:28:05.637Z,13.32
2023-02-24T13:30:41.709Z,14.10
2023-02-24T13:33:17.001Z,13.40
2023-02-24T13:35:43.555Z,14.02
2023-02-24T13:38:23.819Z,13.50
2023-02-24T13:40:50.801Z,15.25
2023-02-24T13:43:23.062Z,14.93
2023-02-24T13:45:58.611Z,15.55
2023-02-24T13:48:39.915Z,15.98
2023-02-24T13:51:25.185Z,15.65
2023-02-24T13:54:09.240Z,15.75
2023-02-24T13:56:51.356Z,16.60
2023-02-24T13:59:30.343Z,16.63
2023-02-24T14:02:20.943Z,18.20
2023-02-24T14:04:54.923Z,18.38
2023-02-24T14:07:29.321Z,17.98
2023-02-24T14:10:14.714Z,19.35
2023-02-24T14:12:41.631Z,19.55
2023-02-24T14:15:12.159Z,18.88
2023-02-24T14:17:38.700Z,18.50
2023-02-24T14:20:11.584Z,17.33
2023-02-24T14:23:14.436Z,17.65
2023-02-24T14:25:41.140Z,15.38
2023-02-24T14:28:18.061Z,15.60
2023-02-24T14:30:44.718Z,15.73
2023-02-24T14:33:48.339Z,13.55
2023-02-24T14:36:19.048Z,13.15
2023-02-24T14:38:45.910Z,13.45
2023-02-24T14:41:23.439Z,13.23
2023-02-24T14:43:50.540Z,11.75
2023-02-24T14:46:17.159Z,11.55
2023-02-24T14:48:43.983Z,11.93
2023-02-24T14:51:14.107Z,11.95
2023-02-24T14:53:46.392Z,12.65
2023-02-24T14:56:12.980Z,13.75
2023-02-24T14:58:51.612Z,15.23
2023-02-24T15:01:21.681Z,16.55
2023-02-24T15:03:56.195Z,18.40
2023-02-24T15:06:25.215Z,20.20
2023-02-24T15:09:03.298Z,20.73
2023-02-24T15:11:30.845Z,19.83
2023-02-24T15:14:06.159Z,19.33
2023-02-24T15:16:43.687Z,19.50
2023-02-24T15:19:22.449Z,18.13
2023-02-24T15:21:48.995Z,17.60
2023-02-24T15:24:19.703Z,17.88
2023-02-24T15:26:54.769Z,17.73
2023-02-24T15:29:25.681Z,15.88
2023-02-24T15:31:52.444Z,17.10
2023-02-24T15:34:20.495Z,17.42
2023-02-24T15:36:47.005Z,18.95
2023-02-24T15:39:23.241Z,20.05
2023-02-24T15:41:51.128Z,20.15
2023-02-24T15:44:31.466Z,20.25
2023-02-24T15:46:58.636Z,20.02
2023-02-24T15:49:25.249Z,19.98
2023-02-24T15:51:53.066Z,21.13
2023-02-24T15:54:32.171Z,20.42
2023-02-24T15:56:59.307Z,18.92
2023-02-24T15:59:25.805Z,20.00
2023-02-24T16:01:52.374Z,19.48
2023-02-24T16:04:19.609Z,18.23
2023-02-24T16:06:54.253Z,18.25
2023-02-24T16:09:32.410Z,19.02
2023-02-24T16:11:59.194Z,16.45
2023-02-24T16:14:25.649Z,15.25
2023-02-24T16:16:52.341Z,16.40
2023-02-24T16:19:18.938Z,16.55
2023-02-24T16:21:46.365Z,15.55
2023-02-24T16:24:12.958Z,15.70
2023-02-24T16:26:39.955Z,16.08
2023-02-24T16:29:11.597Z,16.50
2023-02-24T16:31:39.266Z,15.10
2023-02-24T16:34:06.200Z,15.73
2023-02-24T16:36:32.759Z,16.48
2023-02-24T16:38:59.353Z,15.80
2023-02-24T16:41:25.852Z,16.98
2023-02-24T16:43:52.326Z,14.90
2023-02-24T16:46:22.395Z,15.88
2023-02-24T16:48:50.353Z,15.10
2023-02-24T16:51:16.890Z,14.77
2023-02-24T16:53:43.630Z,14.35
2023-02-24T16:56:10.139Z,14.43
2023-02-24T16:58:36.688Z,15.60
2023-02-24T17:01:03.780Z,15.55
2023-02-24T17:03:43.889Z,16.33
2023-02-24T17:06:10.451Z,20.35
2023-02-24T17:08:37.154Z,16.23
2023-02-24T17:11:03.710Z,15.13
2023-02-24T17:13:30.224Z,16.35
2023-02-24T17:15:57.356Z,14.25
2023-02-24T17:18:24.621Z,14.43
2023-02-24T17:20:51.265Z,14.40
2023-02-24T17:23:17.993Z,14.48
2023-02-24T17:25:44.472Z,13.60
2023-02-24T17:28:11.046Z,13.93
2023-02-24T17:30:38.468Z,14.27
2023-02-24T17:33:05.073Z,12.05
2023-02-24T17:35:32.149Z,11.63
2023-02-24T17:37:58.872Z,11.30
2023-02-24T17:40:25.428Z,10.00
2023-02-24T17:42:51.993Z,10.40
2023-02-24T17:45:18.649Z,10.20
2023-02-24T17:47:45.137Z,9.60
2023-02-24T17:50:12.326Z,9.00
2023-02-24T17:52:39.133Z,9.77
2023-02-24T17:55:06.035Z,9.80
2023-02-24T17:57:34.679Z,9.32
2023-02-24T18:00:01.288Z,8.38
2023-02-24T18:02:27.947Z,8.68
2023-02-24T18:04:54.776Z,8.95
2023-02-24T18:07:21.262Z,9.45
2023-02-24T18:09:47.829Z,9.70
2023-02-24T18:12:14.401Z,9.02
2023-02-24T18:14:40.897Z,8.77
2023-02-24T18:17:07.401Z,9.10
2023-02-24T18:19:34.520Z,9.13
2023-02-24T18:22:01.005Z,11.95
2023-02-24T18:24:27.722Z,8.77
2023-02-24T18:26:54.439Z,12.15
2023-02-24T18:29:20.981Z,14.07
2023-02-24T18:31:47.667Z,35.47
2023-02-24T18:34:14.290Z,15.27
2023-02-24T18:36:40.866Z,14.57
2023-02-24T18:39:09.006Z,15.02
2023-02-24T18:41:36.060Z,16.27
2023-02-24T18:44:02.567Z,12.88
2023-02-24T18:46:29.159Z,9.57
2023-02-24T18:48:56.152Z,9.50
2023-02-24T18:51:23.100Z,9.73
2023-02-24T18:53:52.408Z,12.07
2023-02-24T18:56:24.304Z,12.35
2023-02-24T18:58:52.447Z,9.13
2023-02-24T19:01:20.830Z,12.43
2023-02-24T19:03:48.214Z,10.25
2023-02-24T19:06:15.049Z,13.55
2023-02-24T19:08:41.720Z,11.55
2023-02-24T19:11:16.069Z,9.60
2023-02-24T19:13:42.975Z,9.07
2023-02-24T19:16:09.604Z,11.32
2023-02-24T19:18:36.186Z,10.02
2023-02-24T19:21:08.425Z,10.98
2023-02-24T19:23:35.244Z,11.10
2023-02-24T19:26:01.968Z,11.10
2023-02-24T19:28:28.484Z,11.32
2023-02-24T19:30:55.046Z,10.50
2023-02-24T19:33:21.882Z,10.00
2023-02-24T19:35:48.542Z,12.23
2023-02-24T19:38:18.442Z,12.02
2023-02-24T19:40:45.055Z,11.30
2023-02-24T19:43:11.554Z,10.90
2023-02-24T19:45:42.066Z,10.25
2023-02-24T19:48:09.041Z,10.23
2023-02-24T19:50:35.566Z,10.32
2023-02-24T19:53:02.038Z,10.50
2023-02-24T19:55:28.600Z,11.20
2023-02-24T19:57:55.174Z,12.45
2023-02-24T20:00:23.359Z,12.05
2023-02-24T20:02:50.287Z,11.10
2023-02-24T20:05:16.815Z,11.32
2023-02-24T20:07:43.379Z,12.15
2023-02-24T20:10:11.021Z,12.85
2023-02-24T20:12:37.773Z,14.90
2023-02-24T20:15:04.950Z,14.82
2023-02-24T20:17:33.496Z,15.80
2023-02-24T20:20:00.239Z,15.55
2023-02-24T20:22:26.860Z,16.75
2023-02-24T20:24:53.452Z,17.85
2023-02-24T20:27:19.914Z,15.57
2023-02-24T20:29:46.737Z,17.00
2023-02-24T20:32:13.385Z,17.65
2023-02-24T20:34:40.022Z,17.92
2023-02-24T20:37:06.594Z,16.52
2023-02-24T20:39:33.258Z,17.92
2023-02-24T20:42:00.320Z,15.30
2023-02-24T20:44:27.069Z,17.45
2023-02-24T20:46:53.624Z,14.82
2023-02-24T20:49:20.087Z,14.63
2023-02-24T20:51:46.555Z,14.88
2023-02-24T20:54:13.484Z,14.02
2023-02-24T20:56:41.269Z,12.73
2023-02-24T20:59:10.442Z,10.23
2023-02-24T21:01:37.308Z,10.43
2023-02-24T21:04:04.602Z,10.55
2023-02-24T21:06:31.187Z,11.18
2023-02-24T21:08:57.952Z,10.77
2023-02-24T21:11:24.512Z,11.88
2023-02-24T21:13:51.206Z,11.93
2023-02-24T21:16:18.363Z,10.57
2023-02-24T21:18:49.255Z,11.13
2023-02-24T21:21:16.119Z,10.90
2023-02-24T21:23:43.087Z,11.70
2023-02-24T21:26:09.715Z,10.93
2023-02-24T21:28:36.226Z,11.63
2023-02-24T21:31:10.412Z,10.82
2023-02-24T21:33:37.366Z,10.77
2023-02-24T21:36:09.544Z,10.90
2023-02-24T21:38:36.790Z,11.25
2023-02-24T21:41:04.435Z,9.63
2023-02-24T21:43:31.067Z,12.15
2023-02-24T21:46:00.875Z,6.10
2023-02-24T21:48:27.400Z,5.35
2023-02-24T21:51:09.449Z,5.43
2023-02-24T21:53:39.072Z,4.82
2023-02-24T21:56:06.181Z,3.95
2023-02-24T21:58:33.127Z,3.53
2023-02-24T22:00:59.637Z,2.58
2023-02-24T22:03:26.253Z,1.88
2023-02-24T22:05:53.658Z,1.63
2023-02-24T22:08:20.211Z,1.92
2023-02-24T22:10:47.351Z,1.67
2023-02-24T22:13:13.853Z,1.48
2023-02-24T22:15:40.385Z,1.27
2023-02-24T22:18:07.381Z,1.20
2023-02-24T22:20:33.903Z,0.90
2023-02-24T22:23:00.372Z,0.98
2023-02-24T22:25:26.861Z,0.77
2023-02-24T22:27:53.398Z,0.60
2023-02-24T22:30:19.948Z,0.70
2023-02-24T22:32:46.517Z,0.68
2023-02-24T22:35:13.107Z,0.75
2023-02-24T22:37:39.574Z,0.45
2023-02-24T22:40:06.724Z,0.60
2023-02-24T22:42:33.216Z,0.60
2023-02-24T22:45:00.205Z,0.98
2023-02-24T22:47:26.724Z,1.00
2023-02-24T22:49:53.597Z,1.30
2023-02-24T22:52:20.336Z,1.00
2023-02-24T22:54:46.811Z,0.82
2023-02-24T22:57:14.273Z,1.13
2023-02-24T22:59:40.733Z,0.80
2023-02-24T23:02:09.383Z,1.05
2023-02-24T23:04:36.196Z,1.23
2023-02-24T23:07:03.009Z,1.20
2023-02-24T23:09:29.746Z,1.02
2023-02-24T23:11:56.377Z,0.80
2023-02-24T23:14:22.898Z,0.88
2023-02-24T23:16:55.503Z,1.20
2023-02-24T23:19:22.433Z,1.15
2023-02-24T23:21:50.790Z,1.02
2023-02-24T23:24:17.697Z,0.93
2023-02-24T23:26:49.098Z,0.73
2023-02-24T23:29:17.201Z,1.10
2023-02-24T23:31:43.824Z,1.08
2023-02-24T23:34:10.681Z,1.55
2023-02-24T23:36:39.227Z,1.02
2023-02-24T23:39:06.120Z,1.13
2023-02-24T23:41:33.866Z,1.02
2023-02-24T23:44:00.428Z,0.80
2023-02-24T23:46:26.980Z,1.00
2023-02-24T23:48:53.733Z,1.15
2023-02-24T23:51:20.333Z,1.13
2023-02-24T23:53:47.020Z,1.10
2023-02-24T23:56:15.543Z,1.98
2023-02-24T23:58:42.124Z,1.25
